createdAt,value
2023-12-23T00:01:06.456Z,1.53
2023-12-23T00:03:33.646Z,0.83
2023-12-23T00:06:01.200Z,0.80
2023-12-23T00:08:30.516Z,1.57
2023-12-23T00:10:58.624Z,0.87
2023-12-23T00:13:26.109Z,1.00
2023-12-23T00:15:53.164Z,0.70
2023-12-23T00:18:20.880Z,0.90
2023-12-23T00:20:48.058Z,1.00
2023-12-23T00:23:15.175Z,0.80
2023-12-23T00:25:42.311Z,1.47
2023-12-23T00:28:09.305Z,0.70
2023-12-23T00:30:36.819Z,0.73
2023-12-23T00:33:05.903Z,0.80
2023-12-23T00:35:32.656Z,0.60
2023-12-23T00:37:59.730Z,1.00
2023-12-23T00:40:26.751Z,0.70
2023-12-23T00:42:53.988Z,1.03
2023-12-23T00:45:21.087Z,0.90
2023-12-23T00:47:48.586Z,1.10
2023-12-23T00:50:15.815Z,0.97
2023-12-23T00:52:42.923Z,1.13
2023-12-23T00:55:09.984Z,0.80
2023-12-23T00:57:36.942Z,0.93
2023-12-23T01:00:04.241Z,1.10
2023-12-23T01:02:31.628Z,0.73
2023-12-23T01:04:59.193Z,0.83
2023-12-23T01:07:26.269Z,1.10
2023-12-23T01:09:53.318Z,1.00
2023-12-23T01:12:20.306Z,0.80
2023-12-23T01:14:47.374Z,1.50
2023-12-23T01:17:14.231Z,1.73
2023-12-23T01:19:41.424Z,1.20
2023-12-23T01:22:08.960Z,1.30
2023-12-23T01:24:36.197Z,1.07
2023-12-23T01:27:03.446Z,1.10
2023-12-23T01:29:30.468Z,1.20
2023-12-23T01:31:57.523Z,1.43
2023-12-23T01:34:24.564Z,1.40
2023-12-23T01:36:51.593Z,1.50
2023-12-23T01:39:19.046Z,1.43
2023-12-23T01:41:46.049Z,1.00
2023-12-23T01:44:13.159Z,1.50
2023-12-23T01:46:40.315Z,1.63
2023-12-23T01:49:07.488Z,1.50
2023-12-23T01:51:34.747Z,1.67
2023-12-23T01:54:06.284Z,1.13
2023-12-23T01:56:34.538Z,1.30
2023-12-23T01:59:03.990Z,1.10
2023-12-23T02:01:32.765Z,1.47
2023-12-23T02:03:59.910Z,1.10
2023-12-23T02:06:27.124Z,1.20
2023-12-23T02:08:54.129Z,1.00
2023-12-23T02:11:29.092Z,1.67
2023-12-23T02:14:03.299Z,1.70
2023-12-23T02:16:30.301Z,1.13
2023-12-23T02:18:57.264Z,1.63
2023-12-23T02:21:24.845Z,1.33
2023-12-23T02:23:52.048Z,1.33
2023-12-23T02:26:20.491Z,1.33
2023-12-23T02:28:52.084Z,1.00
2023-12-23T02:31:20.960Z,1.63
2023-12-23T02:33:48.338Z,1.33
2023-12-23T02:36:15.377Z,0.90
2023-12-23T02:38:42.688Z,1.23
2023-12-23T02:41:09.530Z,1.80
2023-12-23T02:43:36.729Z,1.30
2023-12-23T02:46:04.164Z,1.30
2023-12-23T02:48:31.446Z,1.60
2023-12-23T02:50:58.601Z,1.10
2023-12-23T02:53:25.813Z,1.33
2023-12-23T02:55:53.268Z,1.27
2023-12-23T02:58:20.256Z,2.10
2023-12-23T03:00:47.357Z,1.40
2023-12-23T03:03:14.414Z,1.30
2023-12-23T03:05:41.608Z,0.83
2023-12-23T03:08:08.649Z,1.17
2023-12-23T03:10:35.716Z,1.60
2023-12-23T03:13:03.432Z,0.80
2023-12-23T03:15:30.484Z,1.07
2023-12-23T03:17:57.559Z,1.03
2023-12-23T03:20:26.993Z,1.00
2023-12-23T03:22:54.261Z,1.40
2023-12-23T03:25:21.421Z,0.93
2023-12-23T03:27:48.440Z,1.47
2023-12-23T03:30:16.385Z,1.20
2023-12-23T03:32:43.438Z,0.90
2023-12-23T03:35:10.547Z,1.47
2023-12-23T03:37:37.593Z,0.90
2023-12-23T03:40:07.635Z,1.23
2023-12-23T03:42:34.291Z,1.27
2023-12-23T03:45:01.329Z,1.00
2023-12-23T03:47:28.776Z,1.73
2023-12-23T03:49:57.010Z,1.13
2023-12-23T03:52:23.730Z,1.47
2023-12-23T03:54:50.745Z,1.67
2023-12-23T03:57:17.729Z,1.13
2023-12-23T03:59:44.693Z,2.00
2023-12-23T04:02:11.872Z,1.40
2023-12-23T04:04:39.652Z,1.67
2023-12-23T04:07:06.768Z,1.07
2023-12-23T04:09:33.806Z,1.13
2023-12-23T04:12:00.903Z,1.70
2023-12-23T04:14:28.613Z,1.10
2023-12-23T04:16:55.606Z,1.30
2023-12-23T04:19:22.640Z,1.67
2023-12-23T04:21:49.969Z,1.40
2023-12-23T04:24:19.739Z,2.33
2023-12-23T04:26:46.732Z,1.03
2023-12-23T04:29:13.752Z,1.80
2023-12-23T04:31:43.598Z,1.33
2023-12-23T04:34:10.968Z,2.30
2023-12-23T04:36:38.167Z,1.87
2023-12-23T04:39:06.340Z,1.93
2023-12-23T04:41:33.395Z,2.23
2023-12-23T04:44:00.461Z,1.83
2023-12-23T04:46:27.517Z,3.23
2023-12-23T04:48:54.593Z,1.40
2023-12-23T04:51:21.631Z,1.33
2023-12-23T04:53:48.596Z,1.30
2023-12-23T04:56:16.140Z,3.43
2023-12-23T04:58:48.556Z,1.93
2023-12-23T05:01:15.693Z,1.70
2023-12-23T05:03:42.723Z,2.20
2023-12-23T05:06:09.875Z,1.83
2023-12-23T05:08:36.800Z,1.80
2023-12-23T05:11:04.069Z,2.83
2023-12-23T05:13:31.457Z,2.20
2023-12-23T05:15:58.515Z,1.90
2023-12-23T05:18:26.086Z,2.03
2023-12-23T05:20:52.907Z,2.30
2023-12-23T05:23:19.937Z,2.17
2023-12-23T05:25:46.996Z,2.83
2023-12-23T05:28:14.131Z,1.50
2023-12-23T05:30:41.624Z,2.90
2023-12-23T05:33:08.765Z,3.03
2023-12-23T05:35:35.900Z,2.67
2023-12-23T05:38:04.633Z,2.67
2023-12-23T05:40:31.964Z,2.57
2023-12-23T05:42:58.945Z,2.30
2023-12-23T05:45:25.954Z,2.50
2023-12-23T05:47:53.760Z,2.17
2023-12-23T05:50:20.939Z,2.53
2023-12-23T05:52:48.139Z,2.17
2023-12-23T05:55:15.324Z,2.47
2023-12-23T05:57:42.328Z,2.67
2023-12-23T06:00:12.507Z,2.07
2023-12-23T06:02:40.330Z,1.77
2023-12-23T06:05:07.978Z,2.07
2023-12-23T06:07:35.161Z,2.70
2023-12-23T06:10:02.163Z,2.63
2023-12-23T06:12:29.186Z,2.10
2023-12-23T06:14:58.140Z,2.13
2023-12-23T06:17:25.309Z,2.10
2023-12-23T06:19:52.155Z,1.63
2023-12-23T06:22:20.029Z,1.73
2023-12-23T06:24:47.115Z,2.13
2023-12-23T06:27:14.185Z,2.07
2023-12-23T06:29:41.200Z,2.03
2023-12-23T06:32:08.226Z,2.10
2023-12-23T06:34:35.342Z,2.73
2023-12-23T06:37:02.346Z,1.83
2023-12-23T06:39:31.146Z,2.37
2023-12-23T06:41:58.186Z,3.03
2023-12-23T06:44:25.409Z,2.57
2023-12-23T06:46:52.532Z,2.57
2023-12-23T06:49:19.766Z,2.47
2023-12-23T06:51:46.509Z,2.17
2023-12-23T06:54:13.590Z,2.20
2023-12-23T06:56:40.999Z,2.20
2023-12-23T06:59:10.422Z,2.57
2023-12-23T07:01:38.113Z,2.03
2023-12-23T07:04:05.035Z,3.00
2023-12-23T07:06:32.085Z,2.63
2023-12-23T07:08:59.106Z,1.80
2023-12-23T07:11:26.174Z,1.60
2023-12-23T07:13:53.567Z,3.07
2023-12-23T07:16:20.986Z,1.97
2023-12-23T07:18:48.055Z,1.93
2023-12-23T07:21:15.055Z,1.97
2023-12-23T07:23:42.058Z,2.60
2023-12-23T07:26:12.403Z,2.57
2023-12-23T07:28:39.474Z,1.50
2023-12-23T07:31:06.955Z,2.03
2023-12-23T07:33:33.989Z,2.63
2023-12-23T07:36:01.157Z,1.90
2023-12-23T07:38:27.936Z,1.97
2023-12-23T07:40:55.230Z,2.30
2023-12-23T07:43:23.312Z,2.23
2023-12-23T07:45:50.345Z,2.10
2023-12-23T07:48:17.947Z,2.43
2023-12-23T07:50:44.974Z,2.10
2023-12-23T07:53:12.115Z,1.70
2023-12-23T07:55:40.143Z,1.60
2023-12-23T07:58:07.098Z,2.00
2023-12-23T08:00:34.087Z,1.37
2023-12-23T08:03:01.104Z,1.33
2023-12-23T08:05:32.102Z,1.33
2023-12-23T08:07:59.241Z,1.47
2023-12-23T08:10:26.261Z,2.27
2023-12-23T08:12:53.370Z,1.67
2023-12-23T08:15:20.575Z,1.50
2023-12-23T08:17:47.623Z,2.10
2023-12-23T08:20:14.696Z,1.27
2023-12-23T08:22:42.400Z,1.20
2023-12-23T08:25:09.834Z,1.83
2023-12-23T08:27:38.183Z,1.33
2023-12-23T08:30:05.565Z,3.07
2023-12-23T08:32:33.437Z,1.60
2023-12-23T08:35:00.601Z,2.40
2023-12-23T08:37:27.616Z,1.60
2023-12-23T08:39:55.356Z,1.80
2023-12-23T08:42:22.441Z,1.93
2023-12-23T08:44:49.769Z,1.80
2023-12-23T08:47:16.817Z,2.17
2023-12-23T08:49:43.877Z,1.80
2023-12-23T08:52:11.160Z,1.57
2023-12-23T08:54:40.988Z,1.73
2023-12-23T08:57:09.915Z,1.50
2023-12-23T08:59:37.308Z,1.50
2023-12-23T09:02:05.445Z,1.50
2023-12-23T09:04:32.438Z,2.00
2023-12-23T09:06:59.491Z,2.50
2023-12-23T09:09:28.197Z,2.50
2023-12-23T09:11:55.245Z,1.60
2023-12-23T09:14:22.805Z,2.17
2023-12-23T09:16:49.806Z,2.40
2023-12-23T09:19:17.698Z,1.77
2023-12-23T09:21:44.964Z,1.73
2023-12-23T09:24:11.668Z,2.00
2023-12-23T09:26:38.707Z,2.27
2023-12-23T09:29:05.659Z,1.70
2023-12-23T09:31:33.653Z,1.57
2023-12-23T09:34:00.739Z,1.87
2023-12-23T09:36:27.746Z,1.30
2023-12-23T09:38:54.707Z,1.57
2023-12-23T09:41:22.447Z,2.00
2023-12-23T09:43:49.696Z,1.80
2023-12-23T09:46:17.569Z,2.13
2023-12-23T09:48:45.144Z,2.10
2023-12-23T09:51:16.801Z,2.07
2023-12-23T09:53:47.167Z,1.63
2023-12-23T09:56:14.733Z,1.83
2023-12-23T09:58:43.588Z,1.23
2023-12-23T10:01:12.019Z,1.90
2023-12-23T10:03:39.147Z,2.13
2023-12-23T10:06:07.786Z,2.30
2023-12-23T10:08:34.849Z,2.33
2023-12-23T10:11:01.954Z,1.33
2023-12-23T10:15:15.378Z,1.97
2023-12-23T10:17:42.697Z,1.60
2023-12-23T10:20:12.104Z,2.27
2023-12-23T10:22:39.091Z,1.90
2023-12-23T10:25:06.186Z,1.77
2023-12-23T10:27:34.042Z,1.73
2023-12-23T10:30:01.168Z,2.03
2023-12-23T10:32:32.999Z,1.53
2023-12-23T10:35:01.314Z,1.73
2023-12-23T10:37:29.644Z,1.40
2023-12-23T10:40:02.671Z,1.30
2023-12-23T10:42:31.000Z,1.47
2023-12-23T10:44:59.444Z,1.43
2023-12-23T10:47:29.283Z,1.60
2023-12-23T10:49:57.108Z,1.83
2023-12-23T10:52:24.475Z,2.00
2023-12-23T10:54:52.181Z,1.90
2023-12-23T10:57:22.241Z,2.00
2023-12-23T10:59:49.573Z,2.70
2023-12-23T11:02:20.512Z,2.27
2023-12-23T11:04:50.946Z,1.90
2023-12-23T11:07:21.192Z,1.47
2023-12-23T11:09:50.452Z,1.90
2023-12-23T11:12:18.234Z,1.67
2023-12-23T11:14:45.573Z,1.53
2023-12-23T11:17:23.693Z,2.00
2023-12-23T11:19:51.412Z,1.90
2023-12-23T11:22:22.162Z,2.30
2023-12-23T11:24:49.528Z,2.00
2023-12-23T11:27:33.368Z,1.77
2023-12-23T11:30:01.974Z,2.20
2023-12-23T11:32:37.194Z,2.23
2023-12-23T11:35:06.244Z,2.13
2023-12-23T11:37:51.047Z,2.00
2023-12-23T11:40:18.897Z,1.93
2023-12-23T11:42:46.270Z,2.53
2023-12-23T11:45:13.910Z,2.50
2023-12-23T11:47:41.212Z,2.10
2023-12-23T11:50:10.449Z,2.00
2023-12-23T11:52:38.029Z,1.80
2023-12-23T11:55:05.491Z,2.00
2023-12-23T11:57:37.463Z,2.53
2023-12-23T12:00:04.902Z,1.83
2023-12-23T12:02:32.063Z,1.80
2023-12-23T12:04:59.259Z,2.17
2023-12-23T12:07:27.144Z,1.60
2023-12-23T12:09:54.195Z,1.20
2023-12-23T12:12:24.286Z,1.60
2023-12-23T12:14:51.276Z,2.40
2023-12-23T12:17:18.566Z,1.90
2023-12-23T12:19:45.927Z,1.63
2023-12-23T12:22:16.159Z,1.70
2023-12-23T12:24:44.214Z,1.63
2023-12-23T12:27:12.163Z,1.40
2023-12-23T12:29:39.303Z,1.73
2023-12-23T12:32:06.539Z,1.40
2023-12-23T12:34:33.687Z,1.60
2023-12-23T12:37:06.993Z,1.23
2023-12-23T12:39:36.994Z,1.43
2023-12-23T12:42:05.032Z,1.77
2023-12-23T12:44:33.719Z,1.90
2023-12-23T12:47:00.497Z,2.53
2023-12-23T12:49:27.375Z,3.70
2023-12-23T12:52:04.637Z,2.30
2023-12-23T12:54:35.282Z,2.13
2023-12-23T12:57:03.032Z,3.00
2023-12-23T12:59:31.344Z,1.60
2023-12-23T13:02:06.395Z,1.77
2023-12-23T13:04:33.266Z,1.70
2023-12-23T13:07:00.002Z,1.73
2023-12-23T13:09:26.776Z,2.13
2023-12-23T13:12:02.534Z,1.70
2023-12-23T13:14:30.132Z,2.27
2023-12-23T13:16:58.809Z,1.90
2023-12-23T13:19:27.600Z,2.30
2023-12-23T13:21:56.656Z,2.60
2023-12-23T13:24:23.452Z,2.03
2023-12-23T13:26:50.162Z,2.00
2023-12-23T13:29:19.060Z,1.77
2023-12-23T13:31:49.276Z,2.30
2023-12-23T13:34:16.298Z,2.40
2023-12-23T13:36:45.856Z,2.20
2023-12-23T13:39:13.490Z,1.57
2023-12-23T13:41:40.530Z,2.43
2023-12-23T13:44:07.766Z,2.50
2023-12-23T13:46:34.464Z,1.80
2023-12-23T13:49:02.060Z,1.93
2023-12-23T13:51:29.068Z,1.50
2023-12-23T13:53:55.827Z,1.40
2023-12-23T13:56:22.752Z,1.77
2023-12-23T13:58:50.646Z,1.90
2023-12-23T14:01:17.533Z,1.37
2023-12-23T14:03:44.727Z,1.67
2023-12-23T14:06:12.263Z,1.37
2023-12-23T14:08:39.108Z,1.70
2023-12-23T14:11:05.958Z,1.70
2023-12-23T14:13:33.093Z,1.40
2023-12-23T14:15:59.855Z,1.80
2023-12-23T14:18:26.698Z,1.67
2023-12-23T14:20:53.768Z,1.80
2023-12-23T14:23:22.248Z,1.50
2023-12-23T14:25:49.247Z,1.60
2023-12-23T14:28:18.606Z,2.40
2023-12-23T14:30:45.739Z,1.67
2023-12-23T14:33:12.696Z,1.40
2023-12-23T14:35:39.779Z,1.73
2023-12-23T14:38:06.808Z,2.03
2023-12-23T14:40:34.307Z,1.40
2023-12-23T14:43:01.084Z,1.73
2023-12-23T14:45:29.067Z,1.80
2023-12-23T14:47:55.907Z,1.70
2023-12-23T14:50:22.690Z,2.27
2023-12-23T14:52:49.832Z,2.37
2023-12-23T14:55:17.041Z,2.30
2023-12-23T14:57:44.471Z,2.63
2023-12-23T15:00:12.266Z,1.83
2023-12-23T15:02:39.381Z,1.97
2023-12-23T15:05:07.626Z,1.57
2023-12-23T15:07:34.608Z,1.83
2023-12-23T15:10:01.423Z,2.13
2023-12-23T15:12:28.116Z,2.33
2023-12-23T15:14:55.538Z,2.13
2023-12-23T15:17:22.314Z,1.97
2023-12-23T15:19:49.344Z,1.60
2023-12-23T15:22:16.104Z,1.80
2023-12-23T15:24:43.001Z,1.70
2023-12-23T15:27:09.729Z,1.80
2023-12-23T15:29:37.273Z,1.90
2023-12-23T15:32:05.325Z,1.60
2023-12-23T15:34:32.021Z,1.47
2023-12-23T15:36:58.717Z,1.70
2023-12-23T15:39:25.433Z,1.60
2023-12-23T15:41:52.125Z,1.73
2023-12-23T15:44:18.965Z,2.20
2023-12-23T15:46:45.685Z,1.73
2023-12-23T15:49:13.264Z,2.13
2023-12-23T15:51:39.988Z,1.97
2023-12-23T15:54:07.049Z,1.60
2023-12-23T15:56:38.162Z,2.20
2023-12-23T15:59:05.177Z,1.47
2023-12-23T16:01:32.003Z,1.37
2023-12-23T16:03:58.971Z,1.23
2023-12-23T16:06:26.590Z,1.80
2023-12-23T16:08:53.284Z,1.20
2023-12-23T16:11:20.226Z,1.67
2023-12-23T16:13:48.038Z,1.30
2023-12-23T16:16:15.097Z,2.10
2023-12-23T16:18:41.843Z,1.73
2023-12-23T16:21:08.570Z,1.70
2023-12-23T16:23:36.027Z,2.00
2023-12-23T16:26:04.883Z,1.30
2023-12-23T16:28:32.000Z,1.40
2023-12-23T16:30:59.473Z,1.50
2023-12-23T16:33:26.351Z,1.40
2023-12-23T16:35:53.517Z,1.40
2023-12-23T16:38:20.372Z,2.00
2023-12-23T16:40:48.906Z,1.90
2023-12-23T16:43:15.645Z,2.43
2023-12-23T16:45:42.443Z,2.00
2023-12-23T16:48:09.445Z,1.83
2023-12-23T16:50:36.311Z,2.63
2023-12-23T16:53:03.217Z,2.23
2023-12-23T16:55:29.980Z,2.00
2023-12-23T16:57:58.493Z,2.17
2023-12-23T17:00:25.294Z,2.53
2023-12-23T17:02:52.174Z,1.90
2023-12-23T17:05:19.875Z,2.80
2023-12-23T17:07:47.175Z,2.63
2023-12-23T17:10:14.117Z,3.30
2023-12-23T17:12:40.851Z,2.50
2023-12-23T17:15:10.357Z,1.83
2023-12-23T17:17:37.788Z,2.03
2023-12-23T17:20:05.875Z,1.87
2023-12-23T17:22:32.608Z,1.87
2023-12-23T17:24:59.305Z,2.07
2023-12-23T17:27:25.989Z,2.60
2023-12-23T17:29:52.797Z,2.77
2023-12-23T17:32:20.990Z,2.90
2023-12-23T17:34:47.856Z,2.50
2023-12-23T17:37:14.694Z,2.30
2023-12-23T17:39:41.517Z,1.97
2023-12-23T17:42:08.488Z,2.97
2023-12-23T17:44:35.272Z,2.90
2023-12-23T17:47:02.278Z,3.03
2023-12-23T17:49:29.775Z,2.00
2023-12-23T17:51:56.572Z,3.13
2023-12-23T17:54:23.274Z,3.10
2023-12-23T17:56:50.086Z,2.60
2023-12-23T17:59:16.912Z,1.70
2023-12-23T18:01:43.654Z,3.70
2023-12-23T18:04:10.379Z,2.80
2023-12-23T18:06:37.859Z,3.67
2023-12-23T18:09:04.627Z,2.27
2023-12-23T18:11:31.694Z,2.80
2023-12-23T18:13:59.009Z,2.63
2023-12-23T18:16:25.827Z,3.57
2023-12-23T18:18:52.724Z,3.53
2023-12-23T18:21:19.718Z,3.23
2023-12-23T18:23:47.276Z,2.60
2023-12-23T18:26:14.246Z,2.70
2023-12-23T18:28:40.977Z,2.97
2023-12-23T18:31:07.643Z,2.70
2023-12-23T18:33:34.755Z,2.67
2023-12-23T18:36:01.584Z,2.77
2023-12-23T18:38:28.696Z,2.20
2023-12-23T18:40:56.474Z,2.97
2023-12-23T18:43:23.176Z,3.10
2023-12-23T18:45:49.903Z,2.80
2023-12-23T18:48:16.959Z,3.37
2023-12-23T18:50:43.711Z,2.80
2023-12-23T18:53:10.633Z,3.20
2023-12-23T18:55:38.601Z,3.03
2023-12-23T18:58:07.695Z,2.47
2023-12-23T19:00:34.542Z,3.27
2023-12-23T19:03:02.274Z,3.47
2023-12-23T19:05:29.116Z,3.67
2023-12-23T19:07:56.598Z,3.83
2023-12-23T19:10:23.407Z,3.90
2023-12-23T19:12:50.374Z,3.10
2023-12-23T19:15:18.065Z,3.40
2023-12-23T19:17:45.592Z,3.70
2023-12-23T19:20:12.754Z,3.63
2023-12-23T19:22:39.481Z,3.90
2023-12-23T19:25:07.464Z,3.53
2023-12-23T19:27:34.546Z,3.80
2023-12-23T19:30:01.525Z,4.07
2023-12-23T19:32:29.039Z,3.67
2023-12-23T19:34:56.046Z,3.20
2023-12-23T19:37:23.029Z,2.47
2023-12-23T19:39:59.355Z,3.57
2023-12-23T19:42:30.072Z,2.63
2023-12-23T19:44:56.857Z,2.97
2023-12-23T19:47:23.705Z,2.43
2023-12-23T19:49:51.143Z,3.50
2023-12-23T19:52:18.083Z,3.30
2023-12-23T19:54:44.778Z,3.97
2023-12-23T19:57:11.750Z,4.53
2023-12-23T19:59:38.798Z,3.93
2023-12-23T20:02:05.959Z,2.83
2023-12-23T20:04:32.708Z,4.13
2023-12-23T20:07:00.202Z,4.20
2023-12-23T20:09:26.999Z,3.63
2023-12-23T20:11:55.502Z,3.60
2023-12-23T20:14:22.437Z,3.50
2023-12-23T20:16:49.114Z,3.17
2023-12-23T20:19:16.867Z,2.60
2023-12-23T20:21:43.759Z,2.67
2023-12-23T20:24:11.357Z,3.60
2023-12-23T20:26:38.248Z,2.30
2023-12-23T20:29:07.398Z,1.87
2023-12-23T20:31:34.557Z,2.80
2023-12-23T20:34:03.806Z,2.70
2023-12-23T20:36:30.836Z,2.77
2023-12-23T20:38:57.580Z,2.73
2023-12-23T20:41:25.200Z,2.03
2023-12-23T20:43:52.054Z,2.63
2023-12-23T20:46:18.817Z,3.17
2023-12-23T20:48:46.712Z,3.27
2023-12-23T20:51:13.684Z,3.13
2023-12-23T20:53:40.474Z,3.37
2023-12-23T20:56:07.497Z,2.27
2023-12-23T20:58:34.898Z,2.13
2023-12-23T21:01:01.819Z,2.40
2023-12-23T21:03:28.749Z,2.67
2023-12-23T21:05:55.672Z,2.90
2023-12-23T21:08:22.571Z,2.47
2023-12-23T21:10:49.670Z,2.60
2023-12-23T21:13:16.421Z,2.93
2023-12-23T21:15:44.078Z,3.10
2023-12-23T21:18:11.019Z,2.53
2023-12-23T21:20:37.945Z,2.80
2023-12-23T21:23:05.105Z,2.93
2023-12-23T21:25:31.973Z,2.53
2023-12-23T21:27:58.768Z,3.13
2023-12-23T21:30:26.430Z,2.23
2023-12-23T21:32:54.245Z,2.50
2023-12-23T21:35:21.160Z,2.53
2023-12-23T21:37:47.904Z,2.83
2023-12-23T21:40:14.820Z,2.43
2023-12-23T21:42:42.943Z,2.53
2023-12-23T21:45:10.262Z,3.83
2023-12-23T21:47:37.363Z,2.83
2023-12-23T21:50:05.827Z,2.60
2023-12-23T21:52:32.660Z,3.43
2023-12-23T21:55:00.332Z,3.23
2023-12-23T21:57:27.083Z,2.67
2023-12-23T21:59:53.742Z,3.57
2023-12-23T22:02:20.572Z,2.67
2023-12-23T22:04:47.616Z,2.73
2023-12-23T22:07:15.004Z,2.47
2023-12-23T22:09:41.769Z,2.17
2023-12-23T22:12:09.032Z,2.90
2023-12-23T22:14:35.868Z,2.73
2023-12-23T22:17:02.764Z,2.80
2023-12-23T22:19:29.662Z,2.60
2023-12-23T22:21:56.473Z,2.97
2023-12-23T22:24:23.770Z,2.93
2023-12-23T22:26:50.560Z,3.90
2023-12-23T22:29:17.387Z,3.37
2023-12-23T22:31:44.112Z,3.83
2023-12-23T22:34:10.952Z,3.37
2023-12-23T22:36:37.686Z,2.70
2023-12-23T22:39:04.524Z,3.13
2023-12-23T22:41:32.042Z,3.60
2023-12-23T22:43:58.816Z,2.90
2023-12-23T22:46:25.604Z,2.20
2023-12-23T22:48:52.327Z,2.50
2023-12-23T22:51:19.229Z,2.63
2023-12-23T22:53:45.880Z,3.20
2023-12-23T22:56:12.722Z,3.40
2023-12-23T22:58:40.680Z,3.20
2023-12-23T23:01:14.313Z,2.97
2023-12-23T23:03:41.137Z,2.97
2023-12-23T23:06:08.053Z,2.47
2023-12-23T23:08:34.888Z,3.17
2023-12-23T23:11:01.930Z,2.87
2023-12-23T23:13:31.229Z,3.20
2023-12-23T23:15:58.598Z,2.67
2023-12-23T23:18:25.434Z,2.63
2023-12-23T23:20:52.238Z,2.93
2023-12-23T23:23:18.958Z,3.07
2023-12-23T23:25:45.703Z,2.70
2023-12-23T23:28:12.424Z,3.20
2023-12-23T23:30:39.127Z,3.10
2023-12-23T23:33:06.574Z,3.07
2023-12-23T23:35:33.651Z,2.67
2023-12-23T23:38:00.455Z,2.47
2023-12-23T23:40:27.860Z,2.33
2023-12-23T23:42:54.814Z,2.70
2023-12-23T23:45:21.482Z,3.17
2023-12-23T23:47:48.566Z,3.00
2023-12-23T23:50:17.811Z,2.67
2023-12-23T23:52:44.508Z,2.70
2023-12-23T23:55:11.435Z,2.80
2023-12-23T23:57:40.790Z,3.00
